Time;durP1;ratioP1;P1;durP2;ratioP2;P2;SDS_P1;SDS_P2;PMS_P1;PMS_P2;Temp;Humidity;BMP_temperature;BMP_pressure;BME280_temperature;BME280_humidity;BME280_pressure;Samples;Min_cycle;Max_cycle;Signal;HPM_P1;HPM_P2
2023/09/09 06:39:49;;;;;;;12.38;10.27;;;19.30;99.90;;;;;;5140710;23;20199;-76
2023/09/09 06:42:42;;;;;;;14.43;10.88;;;19.40;99.90;;;;;;4926415;29;20058;-75
2023/09/09 06:45:48;;;;;;;13.02;9.52;;;19.50;99.90;;;;;;4936677;29;20074;-76
2023/09/09 06:48:21;;;;;;;12.13;10.10;;;19.60;99.90;;;;;;4924328;29;20119;-76
2023/09/09 06:51:27;;;;;;;13.67;10.40;;;19.70;99.90;;;;;;4909973;29;20385;-75
2023/09/09 06:53:58;;;;;;;13.07;11.02;;;19.80;99.90;;;;;;4907381;29;20536;-75
2023/09/09 07:07:05;;;;;;;11.88;9.27;;;20.30;99.90;;;;;;4854735;29;20053;-77
2023/09/09 07:10:23;;;;;;;13.32;9.95;;;20.60;99.90;;;;;;4889534;29;20029;-79
2023/09/09 07:25:59;;;;;;;11.10;9.40;;;21.10;99.90;;;;;;5225673;23;20294;-75
2023/09/09 07:29:16;;;;;;;14.88;9.82;;;21.20;99.90;;;;;;4947184;29;20072;-76
2023/09/09 07:39:51;;;;;;;13.45;9.60;;;21.70;99.90;;;;;;4776093;30;20027;-78
2023/09/09 07:54:37;;;;;;;10.65;9.30;;;22.40;99.90;;;;;;4757155;30;20094;-77
2023/09/09 08:15:21;;;;;;;10.38;8.35;;;23.40;97.70;;;;;;4945930;29;20075;-77
2023/09/09 08:17:53;;;;;;;11.05;8.98;;;23.50;97.30;;;;;;4944994;29;20294;-77
2023/09/09 08:20:28;;;;;;;10.98;8.20;;;23.70;97.20;;;;;;4945184;29;20385;-78
2023/09/09 08:27:03;;;;;;;11.43;8.38;;;23.80;96.70;;;;;;4946147;29;20023;-78
2023/09/09 08:29:34;;;;;;;11.48;8.38;;;23.90;96.40;;;;;;4937576;29;20043;-78
2023/09/09 08:35:44;;;;;;;12.75;8.45;;;24.10;95.90;;;;;;4953236;29;20038;-78
2023/09/09 08:38:10;;;;;;;11.23;9.15;;;24.20;95.70;;;;;;4945987;29;20040;-76
2023/09/09 08:40:58;;;;;;;10.57;8.40;;;24.20;95.50;;;;;;4945920;29;20027;-78
2023/09/09 08:44:14;;;;;;;10.20;8.77;;;24.30;95.50;;;;;;4945551;29;20091;-77
2023/09/09 08:46:40;;;;;;;10.70;8.52;;;24.40;95.00;;;;;;4923886;29;20051;-77
2023/09/09 08:49:14;;;;;;;10.77;8.40;;;24.50;95.00;;;;;;4945300;29;20044;-76
2023/09/09 08:52:06;;;;;;;12.48;8.18;;;24.60;94.70;;;;;;4915331;29;20119;-76
2023/09/09 08:54:35;;;;;;;11.23;8.13;;;24.70;94.40;;;;;;4964165;29;20051;-77
2023/09/09 08:57:02;;;;;;;9.70;8.15;;;24.90;94.10;;;;;;4931399;29;20038;-79
2023/09/09 08:59:33;;;;;;;10.98;8.07;;;24.90;94.10;;;;;;4948048;29;20372;-78
2023/09/09 09:02:00;;;;;;;11.70;8.00;;;25.00;93.80;;;;;;4961595;29;20102;-75
2023/09/09 09:04:31;;;;;;;10.93;8.02;;;25.10;93.70;;;;;;4929239;29;20055;-77
2023/09/09 09:07:01;;;;;;;10.18;8.00;;;25.10;93.80;;;;;;4931691;29;20031;-76
2023/09/09 09:09:34;;;;;;;13.55;8.50;;;25.20;93.50;;;;;;4964559;29;20325;-76
2023/09/09 09:12:11;;;;;;;10.18;8.32;;;25.30;93.40;;;;;;4963879;28;20042;-76
2023/09/09 09:14:47;;;;;;;9.75;8.02;;;25.40;93.30;;;;;;4928506;29;20034;-76
2023/09/09 09:17:23;;;;;;;9.68;7.72;;;25.50;93.00;;;;;;4912915;29;20028;-77
2023/09/09 09:19:49;;;;;;;10.90;7.53;;;25.60;92.80;;;;;;4921651;29;20023;-77
2023/09/09 09:22:18;;;;;;;10.90;7.40;;;25.70;92.70;;;;;;4931916;29;20215;-77
2023/09/09 09:24:47;;;;;;;9.82;8.02;;;25.80;92.60;;;;;;4931282;29;20031;-77
2023/09/09 09:27:53;;;;;;;10.90;8.27;;;25.90;92.80;;;;;;4931463;29;20035;-76
2023/09/09 09:34:43;;;;;;;11.38;8.43;;;25.90;92.20;;;;;;4945140;29;20030;-77
2023/09/09 09:44:33;;;;;;;9.25;7.13;;;26.30;91.20;;;;;;4928334;29;20215;-76
2023/09/09 09:47:03;;;;;;;8.32;7.40;;;26.50;90.70;;;;;;4928040;29;20080;-77
2023/09/09 09:49:37;;;;;;;9.43;7.47;;;26.60;90.60;;;;;;4912737;29;20031;-78
2023/09/09 09:52:04;;;;;;;12.18;7.13;;;26.70;90.40;;;;;;4944868;29;20035;-74
2023/09/09 09:54:33;;;;;;;8.85;7.13;;;26.90;90.20;;;;;;4944609;29;20344;-77
2023/09/09 09:57:07;;;;;;;8.30;7.03;;;26.90;88.70;;;;;;4944012;29;20115;-76
2023/09/09 09:59:38;;;;;;;8.80;6.80;;;27.00;87.70;;;;;;4945304;29;20103;-77
2023/09/09 10:02:04;;;;;;;12.40;6.95;;;27.00;86.80;;;;;;4944778;29;20055;-76
2023/09/09 10:07:34;;;;;;;8.45;6.55;;;27.30;86.80;;;;;;4944900;29;20318;-76
2023/09/09 10:10:08;;;;;;;11.52;7.10;;;27.30;85.70;;;;;;4945600;29;20038;-75
2023/09/09 10:16:35;;;;;;;8.98;6.45;;;27.60;84.90;;;;;;4944812;29;20039;-74
2023/09/09 10:19:06;;;;;;;8.82;6.22;;;27.80;84.70;;;;;;4911352;29;20044;-76
2023/09/09 10:21:43;;;;;;;6.95;6.25;;;27.90;84.80;;;;;;4911349;29;20028;-75
2023/09/09 10:24:24;;;;;;;8.02;6.75;;;28.10;84.10;;;;;;4928604;29;20070;-76
2023/09/09 10:27:11;;;;;;;8.00;6.32;;;28.20;82.80;;;;;;4930101;29;20035;-74
2023/09/09 10:30:14;;;;;;;7.85;6.40;;;28.20;81.70;;;;;;4915821;29;20099;-77
2023/09/09 10:32:50;;;;;;;7.65;5.75;;;28.30;81.30;;;;;;4931175;29;20028;-74
2023/09/09 10:35:20;;;;;;;11.18;6.63;;;28.40;81.30;;;;;;4931368;29;20049;-75
2023/09/09 10:37:47;;;;;;;9.07;6.18;;;28.50;80.70;;;;;;4948082;29;20091;-75
2023/09/09 10:40:24;;;;;;;7.55;5.95;;;28.60;80.10;;;;;;4932099;29;20036;-75
2023/09/09 10:42:58;;;;;;;10.60;5.88;;;28.60;80.20;;;;;;4948285;29;20278;-75
2023/09/09 10:45:35;;;;;;;8.77;6.45;;;28.70;80.60;;;;;;4948524;29;20042;-75
2023/09/09 10:48:03;;;;;;;7.13;5.95;;;28.80;80.40;;;;;;4931295;29;20212;-76
2023/09/09 10:50:59;;;;;;;7.40;5.70;;;28.90;80.10;;;;;;4930812;29;20038;-77
2023/09/09 10:53:27;;;;;;;11.43;6.80;;;28.90;80.20;;;;;;4929298;29;20347;-74
2023/09/09 10:56:00;;;;;;;10.73;6.13;;;29.10;80.00;;;;;;4930390;29;20047;-75
2023/09/09 10:58:46;;;;;;;14.10;6.88;;;29.20;79.00;;;;;;4930847;29;20091;-76
2023/09/09 11:01:33;;;;;;;10.63;6.32;;;29.50;78.40;;;;;;4948073;29;20056;-77
2023/09/09 11:04:01;;;;;;;14.68;8.10;;;29.80;78.00;;;;;;4919103;29;20047;-75
2023/09/09 11:10:54;;;;;;;13.85;7.50;;;30.40;76.50;;;;;;4947903;29;20042;-78
2023/09/09 11:13:54;;;;;;;11.68;5.80;;;31.00;74.70;;;;;;4917560;29;20039;-77
2023/09/09 11:32:38;;;;;;;6.13;4.63;;;36.80;60.60;;;;;;4946289;29;20267;-78
2023/09/09 11:35:27;;;;;;;6.63;3.58;;;37.70;58.40;;;;;;4921550;29;20046;-79
2023/09/09 11:38:04;;;;;;;5.63;3.30;;;37.60;57.70;;;;;;4940328;29;20039;-76
2023/09/09 11:40:37;;;;;;;7.55;3.95;;;38.20;56.90;;;;;;4892772;29;20039;-74
2023/09/09 11:43:14;;;;;;;11.75;5.75;;;38.30;56.40;;;;;;4914136;29;20264;-75
2023/09/09 11:45:56;;;;;;;9.65;5.10;;;39.20;55.80;;;;;;4895501;29;20036;-76
2023/09/09 11:48:26;;;;;;;10.77;5.50;;;39.70;55.30;;;;;;4895669;29;20028;-78
2023/09/09 11:51:01;;;;;;;10.77;4.63;;;40.30;54.50;;;;;;4902891;29;20027;-78
2023/09/09 11:53:27;;;;;;;7.43;4.07;;;40.20;55.20;;;;;;4895646;29;20038;-75
2023/09/09 11:56:16;;;;;;;8.93;4.22;;;40.70;54.40;;;;;;4937124;29;20055;-76
2023/09/09 11:58:44;;;;;;;6.95;3.92;;;41.10;53.50;;;;;;4929719;29;20024;-77
2023/09/09 12:01:12;;;;;;;4.90;3.90;;;41.00;53.40;;;;;;4946123;29;20258;-77
2023/09/09 12:03:42;;;;;;;6.50;3.72;;;41.20;52.40;;;;;;4911193;29;20079;-76
2023/09/09 12:06:13;;;;;;;8.82;3.97;;;41.60;52.20;;;;;;4945441;29;20031;-77
2023/09/09 12:08:39;;;;;;;5.45;3.42;;;41.90;51.30;;;;;;4946278;29;20396;-77
2023/09/09 12:11:10;;;;;;;7.33;3.77;;;42.50;51.20;;;;;;4945705;29;20111;-77
2023/09/09 12:13:39;;;;;;;7.03;4.22;;;42.40;50.60;;;;;;4929645;29;20039;-76
2023/09/09 12:16:08;;;;;;;7.50;3.63;;;42.30;51.50;;;;;;4946342;29;20046;-78
2023/09/09 12:18:34;;;;;;;5.93;3.38;;;41.80;49.80;;;;;;4929529;29;20194;-77
2023/09/09 12:21:18;;;;;;;7.38;3.55;;;42.10;50.00;;;;;;4945187;29;20031;-77
2023/09/09 12:23:47;;;;;;;6.72;3.22;;;42.90;49.80;;;;;;4905392;29;20036;-79
2023/09/09 12:26:22;;;;;;;8.68;3.47;;;43.90;49.10;;;;;;4935644;29;20039;-78
2023/09/09 12:29:08;;;;;;;8.43;3.42;;;43.80;48.40;;;;;;4933967;29;20073;-77
2023/09/09 12:31:49;;;;;;;7.95;3.13;;;44.10;48.30;;;;;;4943445;29;20178;-79
2023/09/09 12:34:24;;;;;;;7.72;3.15;;;44.30;47.50;;;;;;4945649;29;20329;-76
2023/09/09 12:36:50;;;;;;;9.63;3.10;;;44.60;47.10;;;;;;4907829;29;20024;-78
2023/09/09 12:39:26;;;;;;;;;;;44.60;46.90;;;;;;4926920;29;20028;-77
2023/09/09 12:42:10;;;;;;;8.10;2.97;;;44.30;47.00;;;;;;4926678;29;19931;-77
2023/09/09 12:44:50;;;;;;;5.60;2.90;;;43.80;47.40;;;;;;4926973;29;20094;-76
2023/09/09 12:47:34;;;;;;;6.03;3.28;;;44.20;47.70;;;;;;4909259;29;20099;-76
2023/09/09 12:50:03;;;;;;;9.60;3.03;;;44.90;47.20;;;;;;4909693;29;20028;-77
2023/09/09 12:52:38;;;;;;;7.70;2.63;;;45.40;46.20;;;;;;4927234;29;20043;-77
2023/09/09 12:55:16;;;;;;;10.40;3.30;;;45.70;45.40;;;;;;4941187;29;20023;-78
2023/09/09 12:57:45;;;;;;;8.05;2.80;;;46.30;45.30;;;;;;4934230;29;20067;-76
2023/09/09 13:00:11;;;;;;;6.80;3.10;;;44.30;45.90;;;;;;4945035;29;20325;-77
2023/09/09 13:02:40;;;;;;;10.32;3.33;;;44.20;46.50;;;;;;4945776;29;20117;-77
2023/09/09 13:05:09;;;;;;;7.78;2.75;;;44.40;46.50;;;;;;4944820;29;20225;-78
2023/09/09 13:07:37;;;;;;;5.88;3.20;;;45.00;45.90;;;;;;4945857;29;20035;-77
2023/09/09 13:10:04;;;;;;;4.63;3.00;;;45.60;45.30;;;;;;4912326;29;20309;-76
2023/09/09 13:12:39;;;;;;;9.20;2.85;;;45.00;45.40;;;;;;4930345;29;20100;-78
2023/09/09 13:15:17;;;;;;;7.68;3.40;;;44.70;45.70;;;;;;4928247;29;20032;-76
2023/09/09 13:17:42;;;;;;;7.00;2.83;;;45.90;45.00;;;;;;4936568;29;20329;-79
2023/09/09 13:20:11;;;;;;;6.10;2.90;;;47.00;44.60;;;;;;4927236;29;20030;-77
2023/09/09 13:23:07;;;;;;;6.40;3.13;;;46.90;44.30;;;;;;4944903;29;20035;-76
2023/09/09 13:25:52;;;;;;;8.18;3.10;;;45.80;44.90;;;;;;4923816;29;20116;-76
2023/09/09 13:28:19;;;;;;;8.07;3.40;;;46.20;45.00;;;;;;4944667;29;20295;-78
2023/09/09 13:30:50;;;;;;;7.30;3.22;;;46.90;44.50;;;;;;4945284;29;20187;-76
2023/09/09 13:33:17;;;;;;;6.10;3.05;;;47.40;44.00;;;;;;4945167;29;20179;-76
2023/09/09 13:35:42;;;;;;;4.95;2.92;;;47.50;43.80;;;;;;4945281;29;20024;-77
2023/09/09 13:38:08;;;;;;;7.47;3.17;;;47.20;44.00;;;;;;4927936;29;20307;-79
2023/09/09 13:40:49;;;;;;;8.47;3.13;;;47.60;44.60;;;;;;4900252;28;20060;-77
2023/09/09 13:43:23;;;;;;;7.45;3.42;;;47.50;43.70;;;;;;4944615;29;20047;-78
2023/09/09 13:46:04;;;;;;;10.98;3.33;;;47.40;43.90;;;;;;4929125;29;20028;-77
2023/09/09 13:48:30;;;;;;;5.95;3.17;;;47.50;43.80;;;;;;4928178;29;20027;-76
2023/09/09 13:50:56;;;;;;;4.30;2.80;;;47.20;43.90;;;;;;4945191;29;20195;-76
2023/09/09 13:53:47;;;;;;;6.13;3.00;;;46.80;44.00;;;;;;4944480;29;20036;-77
2023/09/09 13:56:15;;;;;;;7.35;2.85;;;46.90;44.00;;;;;;4924652;29;20036;-77
2023/09/09 13:58:41;;;;;;;7.40;3.00;;;47.50;44.00;;;;;;4926267;29;20385;-78
2023/09/09 14:01:07;;;;;;;6.50;3.07;;;47.80;43.90;;;;;;4929421;29;20060;-78
2023/09/09 14:03:44;;;;;;;7.77;3.37;;;47.90;43.80;;;;;;4932412;29;20058;-77
2023/09/09 14:06:15;;;;;;;4.28;2.80;;;47.90;44.10;;;;;;4948396;29;20027;-77
2023/09/09 14:09:05;;;;;;;5.93;3.03;;;47.50;43.70;;;;;;4914871;29;20032;-76
2023/09/09 14:11:31;;;;;;;6.28;3.30;;;48.60;43.50;;;;;;4948750;29;20280;-77
2023/09/09 14:13:57;;;;;;;6.77;3.07;;;48.50;43.10;;;;;;4948612;29;20031;-76
2023/09/09 14:16:22;;;;;;;6.83;3.73;;;48.50;42.80;;;;;;4948068;29;20036;-77
2023/09/09 14:18:51;;;;;;;6.00;3.22;;;48.80;42.90;;;;;;4931961;29;20107;-77
2023/09/09 14:21:20;;;;;;;4.03;2.80;;;49.60;42.90;;;;;;4931033;29;20035;-77
2023/09/09 14:23:52;;;;;;;7.20;3.35;;;50.00;42.30;;;;;;4948493;29;20120;-77
2023/09/09 14:26:23;;;;;;;10.70;3.08;;;49.60;42.10;;;;;;4948021;29;20035;-77
2023/09/09 14:28:49;;;;;;;6.80;3.50;;;49.40;42.20;;;;;;4948170;29;20119;-78
2023/09/09 14:31:24;;;;;;;7.87;2.93;;;49.50;42.20;;;;;;4947866;29;20079;-77
2023/09/09 14:33:53;;;;;;;5.57;3.00;;;49.30;42.30;;;;;;4966302;29;20347;-77
2023/09/09 14:36:34;;;;;;;7.45;3.75;;;49.10;42.90;;;;;;4949885;29;20074;-78
2023/09/09 14:39:15;;;;;;;4.57;2.80;;;49.50;42.90;;;;;;4950385;29;20324;-76
2023/09/09 14:41:44;;;;;;;6.13;3.08;;;48.80;42.80;;;;;;4950263;29;20035;-77
2023/09/09 14:44:32;;;;;;;6.90;3.30;;;47.20;43.40;;;;;;4967322;29;20096;-76
2023/09/09 14:47:07;;;;;;;4.68;3.53;;;46.80;44.30;;;;;;4961143;29;20059;-77
2023/09/09 14:49:34;;;;;;;5.95;3.05;;;47.30;44.20;;;;;;4967271;29;20061;-78
2023/09/09 14:52:19;;;;;;;4.95;3.22;;;47.90;43.80;;;;;;4951686;29;20246;-78
2023/09/09 14:54:57;;;;;;;8.82;3.83;;;48.40;43.60;;;;;;4966325;29;20047;-77
2023/09/09 14:57:29;;;;;;;5.85;3.30;;;48.90;43.10;;;;;;4927694;29;20257;-77
2023/09/09 15:00:09;;;;;;;7.00;3.15;;;48.90;42.70;;;;;;4914499;29;20034;-76
2023/09/09 15:02:39;;;;;;;5.40;3.08;;;48.90;42.80;;;;;;4930829;29;20031;-78
2023/09/09 15:05:11;;;;;;;6.80;3.60;;;48.70;43.10;;;;;;4946271;29;20043;-79
2023/09/09 15:07:49;;;;;;;5.75;3.17;;;48.60;43.20;;;;;;4930865;29;20325;-79
2023/09/09 15:10:18;;;;;;;6.68;3.40;;;47.80;43.40;;;;;;4947151;29;20106;-76
2023/09/09 15:12:46;;;;;;;4.95;3.20;;;46.80;44.10;;;;;;4947721;29;20031;-76
2023/09/09 15:15:12;;;;;;;4.10;3.20;;;46.80;44.50;;;;;;4945893;29;20040;-76
2023/09/09 15:17:38;;;;;;;7.15;3.60;;;46.50;44.30;;;;;;4947734;29;20368;-76
2023/09/09 15:20:19;;;;;;;5.40;3.60;;;46.40;44.50;;;;;;4947689;29;20091;-76
2023/09/09 15:22:47;;;;;;;6.10;3.30;;;47.20;44.20;;;;;;4914951;29;20034;-79
2023/09/09 15:25:29;;;;;;;7.07;3.58;;;47.30;43.70;;;;;;4914437;29;20075;-76
2023/09/09 15:27:58;;;;;;;5.03;3.00;;;46.90;44.20;;;;;;4946840;29;20046;-77
2023/09/09 15:30:26;;;;;;;5.60;3.38;;;46.70;43.90;;;;;;4947099;29;20047;-77
2023/09/09 15:33:18;;;;;;;5.65;3.13;;;46.60;44.30;;;;;;4946372;29;20044;-76
2023/09/09 15:35:43;;;;;;;8.00;4.10;;;46.60;44.00;;;;;;4947029;29;20217;-75
2023/09/09 15:38:09;;;;;;;7.50;3.83;;;47.20;43.80;;;;;;4946292;29;20043;-76
2023/09/09 15:40:58;;;;;;;6.40;3.50;;;47.10;43.80;;;;;;4930302;29;20106;-77
2023/09/09 15:43:39;;;;;;;6.70;3.50;;;46.60;43.70;;;;;;4946942;29;20036;-77
2023/09/09 15:46:05;;;;;;;4.88;3.30;;;46.50;44.40;;;;;;4947047;29;20031;-77
2023/09/09 15:48:39;;;;;;;8.98;4.00;;;46.50;44.10;;;;;;4929398;29;20225;-76
2023/09/09 15:51:52;;;;;;;6.05;3.30;;;46.70;44.10;;;;;;4947330;29;20035;-77
2023/09/09 15:54:20;;;;;;;5.35;3.17;;;46.30;44.50;;;;;;4946556;29;20038;-76
2023/09/09 15:56:47;;;;;;;7.35;3.05;;;46.70;44.30;;;;;;4946692;29;20070;-77
2023/09/09 15:59:17;;;;;;;7.28;3.70;;;46.70;43.70;;;;;;4929073;29;20054;-78
2023/09/09 16:01:43;;;;;;;7.18;3.72;;;47.10;43.90;;;;;;4946653;29;20059;-77
2023/09/09 16:04:11;;;;;;;5.20;3.65;;;46.70;43.90;;;;;;4946405;29;20036;-78
2023/09/09 16:06:40;;;;;;;7.28;3.17;;;47.10;44.00;;;;;;4946665;29;20115;-77
2023/09/09 16:09:14;;;;;;;5.68;3.28;;;47.00;43.40;;;;;;4946721;29;20027;-78
2023/09/09 16:11:40;;;;;;;5.57;3.50;;;47.00;43.60;;;;;;4914256;29;20062;-78
2023/09/09 16:14:30;;;;;;;5.82;3.67;;;47.00;43.80;;;;;;4947854;29;20020;-77
2023/09/09 16:17:35;;;;;;;5.00;3.00;;;46.70;43.40;;;;;;4922390;29;20110;-76
2023/09/09 16:20:03;;;;;;;5.43;3.28;;;46.40;44.10;;;;;;4930737;29;20031;-77
2023/09/09 16:22:41;;;;;;;7.53;3.38;;;46.60;44.00;;;;;;4950441;29;20031;-77
2023/09/09 16:25:11;;;;;;;7.72;3.88;;;46.30;44.00;;;;;;4934454;29;20115;-75
2023/09/09 16:27:41;;;;;;;7.25;3.92;;;45.80;44.20;;;;;;4934477;29;20059;-76
2023/09/09 16:30:16;;;;;;;5.45;3.28;;;45.70;44.30;;;;;;4948798;29;20055;-78
2023/09/09 16:33:20;;;;;;;5.85;3.55;;;45.50;44.30;;;;;;4945479;29;20028;-76
2023/09/09 16:36:14;;;;;;;5.70;2.90;;;44.90;45.00;;;;;;4911633;29;20191;-77
2023/09/09 16:38:48;;;;;;;6.85;3.47;;;44.90;45.00;;;;;;4835736;29;20400;-78
2023/09/09 16:41:16;;;;;;;4.85;3.60;;;44.90;45.20;;;;;;4835022;29;20221;-77
2023/09/09 16:43:43;;;;;;;6.68;3.15;;;44.60;44.80;;;;;;4850483;29;20050;-77
2023/09/09 16:46:11;;;;;;;4.67;3.70;;;44.20;45.80;;;;;;4850668;29;20046;-77
2023/09/09 16:49:02;;;;;;;9.52;3.78;;;43.20;45.60;;;;;;4850424;29;20201;-76
2023/09/09 16:51:40;;;;;;;6.65;3.10;;;42.60;46.40;;;;;;4834866;29;20324;-77
2023/09/09 16:54:15;;;;;;;5.82;3.47;;;42.50;47.00;;;;;;4850259;29;20157;-75
2023/09/09 16:56:41;;;;;;;5.85;3.33;;;41.90;47.90;;;;;;4850653;29;20331;-76
2023/09/09 16:59:15;;;;;;;6.57;3.85;;;40.90;48.10;;;;;;4868921;29;20145;-77
2023/09/09 17:01:49;;;;;;;7.97;3.80;;;39.40;49.70;;;;;;4869078;29;20044;-77
2023/09/09 17:04:20;;;;;;;9.18;3.88;;;38.30;50.30;;;;;;4868439;29;20041;-77
2023/09/09 17:07:17;;;;;;;5.47;3.78;;;37.40;52.00;;;;;;4856767;29;20032;-77
2023/09/09 17:09:55;;;;;;;6.75;3.75;;;36.40;53.80;;;;;;4868514;29;20033;-76
2023/09/09 17:13:05;;;;;;;8.52;3.47;;;35.80;54.00;;;;;;4868300;29;20033;-77
2023/09/09 17:15:54;;;;;;;10.20;4.05;;;35.30;55.10;;;;;;4900459;29;20032;-76
2023/09/09 17:18:25;;;;;;;7.15;3.88;;;34.70;55.60;;;;;;4926041;29;20076;-76
2023/09/09 17:20:57;;;;;;;9.77;4.20;;;34.20;57.00;;;;;;4909304;29;20136;-76
2023/09/09 17:23:41;;;;;;;7.70;4.25;;;33.90;56.90;;;;;;4926018;29;20051;-76
2023/09/09 17:26:06;;;;;;;7.32;4.07;;;33.20;58.30;;;;;;4926425;29;20322;-75
2023/09/09 17:28:44;;;;;;;8.13;3.60;;;32.80;59.10;;;;;;4925808;29;20227;-76
2023/09/09 17:31:18;;;;;;;7.75;4.13;;;32.70;59.30;;;;;;4935559;29;20027;-76
2023/09/09 17:33:53;;;;;;;7.75;4.32;;;32.50;59.80;;;;;;4966704;28;20101;-76
2023/09/09 17:41:42;;;;;;;7.70;4.03;;;32.00;61.00;;;;;;4948966;29;20027;-76
2023/09/09 17:44:33;;;;;;;8.75;4.40;;;31.80;61.30;;;;;;4932485;29;20027;-77
2023/09/09 17:46:59;;;;;;;7.57;3.83;;;31.60;61.50;;;;;;4932129;29;20385;-78
2023/09/09 17:49:33;;;;;;;7.10;4.55;;;31.60;62.10;;;;;;4948660;29;20034;-77
2023/09/09 17:52:11;;;;;;;7.30;4.00;;;31.40;62.10;;;;;;4948931;29;20032;-76
2023/09/09 17:54:58;;;;;;;;;;;31.30;62.60;;;;;;4949199;29;20031;-76
2023/09/09 17:57:30;;;;;;;8.15;4.13;;;31.20;62.70;;;;;;4931386;29;19945;-76
2023/09/09 17:59:56;;;;;;;9.38;4.47;;;31.20;63.10;;;;;;4948786;29;20031;-76
2023/09/09 18:06:29;;;;;;;;;;;;;;;;;;;;;
2023/09/09 18:09:18;;;;;;;8.33;5.40;;;30.80;63.80;;;;;;4948510;29;20050;-76
2023/09/09 18:11:59;;;;;;;16.80;11.10;;;30.50;64.80;;;;;;4949002;29;20294;-78
2023/09/09 18:14:28;;;;;;;19.15;11.57;;;30.30;65.80;;;;;;4948534;29;20316;-76
2023/09/09 18:17:23;;;;;;;15.50;9.23;;;29.90;66.80;;;;;;4948636;29;20028;-77
2023/09/09 18:24:55;;;;;;;16.48;9.35;;;29.40;68.10;;;;;;4908811;29;20051;-77
2023/09/09 18:28:31;;;;;;;16.67;9.45;;;29.20;68.90;;;;;;4889822;29;20036;-76
2023/09/09 18:31:22;;;;;;;18.33;13.20;;;28.90;69.60;;;;;;4835665;29;20041;-76
2023/09/09 18:34:05;;;;;;;17.07;8.43;;;28.50;70.50;;;;;;4806810;29;20039;-76
2023/09/09 18:36:53;;;;;;;13.68;6.80;;;28.50;70.50;;;;;;4833491;29;20086;-75
2023/09/09 18:39:47;;;;;;;10.77;6.35;;;28.30;71.10;;;;;;4781330;29;20084;-74
2023/09/09 18:42:20;;;;;;;10.40;6.68;;;28.30;71.20;;;;;;4834157;29;20050;-77
2023/09/09 18:44:45;;;;;;;11.25;7.03;;;28.20;71.50;;;;;;4818145;29;20098;-75
2023/09/09 18:47:11;;;;;;;10.10;7.60;;;28.00;72.00;;;;;;4833697;29;20053;-75
2023/09/09 18:49:37;;;;;;;12.25;7.90;;;27.80;72.50;;;;;;4833498;29;20050;-75
2023/09/09 18:52:09;;;;;;;13.13;6.45;;;27.60;73.10;;;;;;4833532;29;20054;-75
2023/09/09 18:54:37;;;;;;;11.48;6.93;;;27.50;73.20;;;;;;4832932;29;20046;-74
2023/09/09 18:57:09;;;;;;;;;;;27.50;73.30;;;;;;4816006;29;20113;-76
2023/09/09 18:59:36;;;;;;;16.02;11.60;;;27.50;73.50;;;;;;4839647;29;19924;-77
2023/09/09 19:02:07;;;;;;;35.87;25.43;;;27.40;73.70;;;;;;4851760;29;20030;-76
2023/09/09 19:04:48;;;;;;;66.53;44.47;;;27.30;74.70;;;;;;4866823;29;20890;-77
2023/09/09 19:07:30;;;;;;;22.48;15.27;;;27.20;74.50;;;;;;4866034;29;20049;-76
2023/09/09 19:10:04;;;;;;;14.68;9.10;;;27.00;74.80;;;;;;4938686;29;20051;-75
2023/09/09 19:12:43;;;;;;;10.35;7.35;;;26.90;74.70;;;;;;4966373;29;20198;-76
2023/09/09 19:15:12;;;;;;;10.82;6.63;;;26.90;75.20;;;;;;4949342;29;20046;-76
2023/09/09 19:18:04;;;;;;;14.48;7.13;;;26.90;75.20;;;;;;4966064;29;20046;-76
2023/09/09 19:20:56;;;;;;;10.10;6.97;;;26.80;75.30;;;;;;4966693;29;20027;-76
2023/09/09 19:23:57;;;;;;;9.48;6.85;;;26.70;75.70;;;;;;4966485;29;20042;-76
2023/09/09 19:26:51;;;;;;;13.35;7.80;;;26.70;75.30;;;;;;4966283;29;20042;-75
